Time;durP1;ratioP1;P1;durP2;ratioP2;P2;SDS_P1;SDS_P2;PMS_P1;PMS_P2;Temp;Humidity;BMP_temperature;BMP_pressure;BME280_temperature;BME280_humidity;BME280_pressure;Samples;Min_cycle;Max_cycle;Signal;HPM_P1;HPM_P2
2021/09/05 00:02:03;;;;;;;16.80;11.10;;;;;;;9.20;84.83;97640.39;116188;1181;68564;-73
2021/09/05 00:04:34;;;;;;;;;;;;;;;9.16;85.62;97639.29;116268;1184;59543;-76
2021/09/05 00:07:04;;;;;;;18.70;12.20;;;;;;;9.12;85.60;97640.30;116268;1181;59578;-76
2021/09/05 00:09:35;;;;;;;21.50;12.40;;;;;;;9.08;85.93;97641.42;116209;1184;70538;-76
2021/09/05 00:12:05;;;;;;;18.70;11.60;;;;;;;9.12;87.32;97643.70;116220;1184;68442;-75
2021/09/05 00:14:36;;;;;;;20.30;12.90;;;;;;;9.21;87.59;97638.16;116038;1185;69226;-73
2021/09/05 00:17:05;;;;;;;20.90;12.50;;;;;;;9.20;86.41;97641.89;116233;1181;59544;-76
2021/09/05 00:19:35;;;;;;;16.00;11.20;;;;;;;9.13;85.66;97639.17;116211;1181;59951;-74
2021/09/05 00:22:05;;;;;;;19.50;12.20;;;;;;;9.05;85.49;97639.19;116151;1181;70428;-73
2021/09/05 00:24:35;;;;;;;17.60;11.70;;;;;;;8.99;85.69;97643.90;116273;1184;68397;-76
2021/09/05 00:27:04;;;;;;;20.40;11.60;;;;;;;8.93;85.80;97642.66;116190;1184;69265;-74
2021/09/05 00:29:33;;;;;;;19.90;13.30;;;;;;;8.89;85.68;97641.64;116180;1182;59592;-75
2021/09/05 00:32:04;;;;;;;19.50;12.80;;;;;;;8.84;86.03;97640.95;116129;1185;59855;-72
2021/09/05 00:34:34;;;;;;;18.50;13.40;;;;;;;8.78;85.59;97642.15;116163;1184;70752;-75
2021/09/05 00:37:04;;;;;;;18.00;13.70;;;;;;;8.74;85.86;97645.29;116250;1184;69087;-75
2021/09/05 00:39:34;;;;;;;19.70;14.10;;;;;;;8.70;86.04;97650.83;116234;1180;68648;-76
2021/09/05 00:42:04;;;;;;;28.60;15.30;;;;;;;8.67;85.54;97647.33;116189;1184;59555;-75
2021/09/05 00:44:34;;;;;;;22.20;16.10;;;;;;;8.66;86.11;97647.60;116127;1181;59510;-75
2021/09/05 00:47:03;;;;;;;19.30;13.90;;;;;;;8.65;85.98;97651.55;116203;1184;70399;-75
2021/09/05 00:49:32;;;;;;;30.80;18.30;;;;;;;8.66;86.72;97654.53;116224;1184;68532;-74
2021/09/05 00:52:02;;;;;;;25.10;16.80;;;;;;;8.69;87.57;97654.32;116203;1184;67332;-74
2021/09/05 00:54:31;;;;;;;23.80;16.30;;;;;;;8.71;87.99;97657.20;116221;1182;59611;-73
2021/09/05 00:57:02;;;;;;;22.80;14.10;;;;;;;8.69;87.00;97656.14;116211;1182;59484;-74
2021/09/05 00:59:33;;;;;;;23.10;14.10;;;;;;;8.65;86.79;97654.48;116220;1179;70771;-74
2021/09/05 01:02:05;;;;;;;19.00;13.40;;;;;;;8.61;86.38;97655.08;116231;1184;68649;-72
2021/09/05 01:04:37;;;;;;;21.80;14.20;;;;;;;8.57;86.39;97655.61;116214;1184;68509;-75
2021/09/05 01:07:11;;;;;;;18.70;13.20;;;;;;;8.53;86.58;97658.70;116182;1179;59508;-73
2021/09/05 01:09:44;;;;;;;21.80;15.40;;;;;;;8.48;86.92;97653.52;116145;1184;59536;-74
2021/09/05 01:12:15;;;;;;;31.70;20.40;;;;;;;8.46;85.89;97653.32;116244;1179;70529;-72
2021/09/05 01:14:45;;;;;;;27.20;18.70;;;;;;;8.47;85.81;97656.20;116189;1184;69205;-75
2021/09/05 01:17:15;;;;;;;21.70;15.80;;;;;;;8.48;86.41;97662.02;116254;1184;67382;-75
2021/09/05 01:20:07;;;;;;;24.30;17.80;;;;;;;8.47;87.34;97661.17;116138;1184;59628;-74
2021/09/05 01:22:55;;;;;;;;;;;;;;;8.43;86.67;97663.44;116247;1181;59501;-74
2021/09/05 01:25:40;;;;;;;25.20;15.40;;;;;;;8.38;86.66;97663.85;116103;1184;71157;-75
2021/09/05 01:28:29;;;;;;;24.50;16.30;;;;;;;8.34;86.73;97664.61;116236;1179;69127;-76
2021/09/05 01:31:22;;;;;;;20.70;15.00;;;;;;;8.29;86.27;97666.82;116169;1182;69219;-73
2021/09/05 01:34:24;;;;;;;24.70;16.20;;;;;;;8.23;86.16;97668.55;116066;1184;59596;-76
2021/09/05 01:37:32;;;;;;;21.20;14.00;;;;;;;8.17;85.86;97667.70;116025;1186;59596;-73
2021/09/05 01:40:26;;;;;;;17.80;12.60;;;;;;;8.13;86.09;97665.17;115918;1187;70276;-76
2021/09/05 01:43:24;;;;;;;23.30;13.20;;;;;;;8.12;87.79;97667.23;116035;1184;68468;-75
2021/09/05 01:46:23;;;;;;;23.00;14.90;;;;;;;8.08;87.80;97670.14;116181;1184;69093;-73
2021/09/05 01:49:11;;;;;;;19.90;13.70;;;;;;;8.04;87.25;97669.24;116135;1184;59512;-76
2021/09/05 01:52:06;;;;;;;24.90;16.00;;;;;;;8.01;87.86;97666.92;116096;1180;59553;-71
2021/09/05 01:54:54;;;;;;;28.10;18.90;;;;;;;8.02;87.58;97665.42;116045;1181;71333;-75
2021/09/05 01:57:45;;;;;;;35.90;20.00;;;;;;;8.08;88.19;97669.83;116083;1184;69483;-75
2021/09/05 02:00:35;;;;;;;23.40;15.80;;;;;;;8.11;88.00;97668.13;116213;1182;68490;-75
2021/09/05 02:03:13;;;;;;;22.40;14.00;;;;;;;8.05;87.09;97671.35;116193;1179;59615;-73
2021/09/05 02:06:03;;;;;;;21.50;13.80;;;;;;;7.99;86.81;97674.14;116216;1184;59557;-75
2021/09/05 02:08:51;;;;;;;18.60;13.00;;;;;;;7.94;86.51;97679.90;116211;1184;71164;-76
2021/09/05 02:11:44;;;;;;;21.00;12.40;;;;;;;7.88;86.13;97679.02;116183;1184;68452;-76
2021/09/05 02:14:31;;;;;;;21.00;12.60;;;;;;;7.82;86.09;97680.77;116212;1183;69635;-76
2021/09/05 02:17:19;;;;;;;18.60;12.10;;;;;;;7.78;86.80;97679.59;116151;1184;59605;-73
2021/09/05 02:20:15;;;;;;;19.10;12.40;;;;;;;7.75;87.14;97683.71;116060;1184;59508;-74
2021/09/05 02:23:02;;;;;;;22.00;13.90;;;;;;;7.72;87.19;97684.69;116203;1184;70621;-75
2021/09/05 02:25:59;;;;;;;20.60;14.20;;;;;;;7.70;86.55;97685.73;116157;1184;69014;-75
2021/09/05 02:28:43;;;;;;;23.20;13.60;;;;;;;7.69;87.44;97682.36;116166;1184;69114;-75
2021/09/05 02:31:30;;;;;;;22.00;13.50;;;;;;;7.69;87.92;97680.56;116254;1180;59549;-74
2021/09/05 02:34:19;;;;;;;24.40;16.70;;;;;;;7.69;87.93;97683.46;116252;1183;59495;-72
2021/09/05 02:37:13;;;;;;;21.90;15.90;;;;;;;7.69;87.01;97686.14;116074;1184;70570;-75
2021/09/05 02:40:12;;;;;;;27.00;15.50;;;;;;;7.67;87.24;97683.27;116001;1184;69159;-75
2021/09/05 02:42:56;;;;;;;24.20;14.20;;;;;;;7.66;87.70;97684.69;116274;1184;68521;-75
2021/09/05 02:45:42;;;;;;;22.10;15.00;;;;;;;7.62;87.33;97683.10;115979;1185;59570;-75
2021/09/05 02:48:40;;;;;;;20.90;13.10;;;;;;;7.59;87.81;97685.42;116185;1183;59556;-74
2021/09/05 02:51:30;;;;;;;20.30;13.20;;;;;;;7.57;88.54;97689.23;116178;1184;70484;-74
2021/09/05 02:54:21;;;;;;;;;;;;;;;7.56;88.59;97685.23;116231;1184;68462;-74
2021/09/05 02:57:07;;;;;;;19.50;12.90;;;;;;;7.53;88.90;97684.63;116245;1184;68390;-75
2021/09/05 02:59:57;;;;;;;20.50;14.50;;;;;;;7.51;88.50;97685.13;116170;1184;59510;-75
2021/09/05 03:02:45;;;;;;;20.90;14.80;;;;;;;7.51;89.02;97685.84;116200;1184;59552;-76
2021/09/05 03:05:42;;;;;;;23.00;14.50;;;;;;;7.52;89.46;97685.34;116182;1182;71531;-77
2021/09/05 03:08:38;;;;;;;23.20;16.20;;;;;;;7.51;89.42;97690.01;116098;1184;69000;-76
2021/09/05 03:11:28;;;;;;;21.70;14.20;;;;;;;7.49;88.83;97694.27;116178;1184;69217;-70
2021/09/05 03:14:33;;;;;;;18.70;12.70;;;;;;;7.41;88.12;97693.53;116109;1184;59513;-76
2021/09/05 03:17:21;;;;;;;18.10;12.00;;;;;;;7.32;87.54;97696.86;116221;1181;59545;-75
2021/09/05 03:20:11;;;;;;;18.30;11.60;;;;;;;7.24;87.15;97697.05;116293;1184;70430;-75
2021/09/05 03:23:04;;;;;;;19.80;12.20;;;;;;;7.18;87.46;97700.10;116234;1184;69035;-73
2021/09/05 03:25:54;;;;;;;17.80;11.50;;;;;;;7.14;87.47;97703.42;116159;1184;69014;-75
2021/09/05 03:28:50;;;;;;;17.50;11.90;;;;;;;7.10;87.46;97705.38;116192;1182;59552;-71
2021/09/05 03:31:40;;;;;;;18.50;13.30;;;;;;;7.07;87.84;97707.55;116127;1184;59577;-76
2021/09/05 03:34:21;;;;;;;20.60;13.00;;;;;;;7.05;87.69;97713.63;116021;1182;71284;-75
2021/09/05 03:37:17;;;;;;;23.10;13.60;;;;;;;7.04;88.16;97713.88;115960;1185;69137;-74
2021/09/05 03:40:11;;;;;;;18.20;12.70;;;;;;;7.02;88.60;97716.02;116007;1181;67526;-72
2021/09/05 03:43:11;;;;;;;19.60;14.30;;;;;;;6.96;88.45;97719.37;116017;1181;59606;-74
2021/09/05 03:46:12;;;;;;;21.80;13.40;;;;;;;6.89;87.52;97725.20;115999;1185;59745;-75
2021/09/05 03:49:08;;;;;;;20.80;13.50;;;;;;;6.84;87.46;97726.04;116067;1185;71340;-75
2021/09/05 03:51:38;;;;;;;;;;;;;;;6.80;87.80;97732.11;116137;1185;68030;-73
2021/09/05 03:54:09;;;;;;;18.10;12.60;;;;;;;6.75;87.97;97735.00;116101;1184;69196;-74
2021/09/05 03:56:38;;;;;;;23.40;14.60;;;;;;;6.73;88.22;97738.55;115981;1182;59591;-74
2021/09/05 03:59:08;;;;;;;31.70;19.80;;;;;;;6.72;87.72;97734.88;116075;1185;59541;-72
2021/09/05 04:01:41;;;;;;;30.40;20.40;;;;;;;6.78;87.69;97737.95;116143;1185;70754;-75
2021/09/05 04:04:22;;;;;;;45.30;18.20;;;;;;;6.82;87.85;97742.65;116082;1184;69020;-74
2021/09/05 04:07:01;;;;;;;48.90;18.90;;;;;;;6.80;88.22;97745.64;116087;1184;69208;-75
2021/09/05 04:12:21;;;;;;;21.60;14.30;;;;;;;6.81;88.50;97747.74;116063;1181;59530;-71
2021/09/05 04:14:51;;;;;;;22.30;15.90;;;;;;;6.83;88.89;97749.80;116063;1184;70612;-74
2021/09/05 04:17:20;;;;;;;24.30;16.40;;;;;;;6.88;88.81;97754.94;116004;1184;69147;-74
2021/09/05 04:19:50;;;;;;;21.90;15.00;;;;;;;6.94;88.61;97757.77;116075;1184;69277;-75
2021/09/05 04:22:19;;;;;;;18.10;13.40;;;;;;;7.03;88.68;97761.25;116066;1184;59555;-74
2021/09/05 04:24:50;;;;;;;18.20;13.10;;;;;;;7.14;88.98;97765.93;115957;1182;59580;-72
2021/09/05 04:27:19;;;;;;;20.80;14.00;;;;;;;7.26;89.04;97761.70;116083;1184;70236;-75
2021/09/05 04:29:49;;;;;;;39.90;13.40;;;;;;;7.40;88.40;97762.73;116107;1184;69049;-76
2021/09/05 04:32:20;;;;;;;36.10;13.80;;;;;;;7.52;88.12;97760.70;116101;1181;67453;-74
2021/09/05 04:34:49;;;;;;;;;;;;;;;7.62;88.06;97768.46;116135;1184;59562;-75
2021/09/05 04:37:20;;;;;;;28.20;17.30;;;;;;;7.69;88.53;97766.63;116111;1184;59533;-74
2021/09/05 04:39:52;;;;;;;53.90;31.70;;;;;;;7.79;88.44;97774.46;116251;1184;71461;-74
2021/09/05 04:42:22;;;;;;;54.20;33.60;;;;;;;8.00;88.01;97774.59;116164;1184;68547;-76
2021/09/05 04:44:54;;;;;;;93.00;53.70;;;;;;;8.29;87.26;97776.39;116239;1182;68283;-71
2021/09/05 04:47:24;;;;;;;104.70;64.10;;;;;;;8.63;87.00;97781.48;116268;1181;59498;-74
2021/09/05 04:49:53;;;;;;;84.50;52.90;;;;;;;9.01;87.42;97782.98;116212;1184;59534;-75
2021/09/05 04:52:22;;;;;;;53.70;33.80;;;;;;;9.42;86.92;97782.64;116227;1184;71333;-75
2021/09/05 04:54:51;;;;;;;45.50;28.50;;;;;;;9.74;86.13;97784.27;116216;1184;68398;-75
2021/09/05 04:57:21;;;;;;;30.50;19.40;;;;;;;10.02;83.82;97790.49;116233;1184;68457;-73
2021/09/05 04:59:50;;;;;;;30.30;19.50;;;;;;;10.20;79.64;97788.55;116236;1184;59554;-75
2021/09/05 05:02:22;;;;;;;22.60;14.60;;;;;;;10.47;81.85;97784.09;116248;1182;59559;-71
2021/09/05 05:04:51;;;;;;;16.70;10.40;;;;;;;10.68;80.03;97786.27;116233;1184;70709;-76
2021/09/05 05:07:21;;;;;;;19.40;10.50;;;;;;;10.84;78.41;97783.20;116235;1184;69286;-75
2021/09/05 05:09:53;;;;;;;18.30;11.80;;;;;;;10.94;76.89;97786.52;116186;1179;69220;-74
2021/09/05 05:12:22;;;;;;;16.40;10.60;;;;;;;10.99;75.23;97785.66;116228;1184;59537;-75
2021/09/05 05:14:51;;;;;;;17.00;11.20;;;;;;;11.12;74.32;97787.63;116217;1184;59551;-71
2021/09/05 05:17:21;;;;;;;15.40;10.70;;;;;;;11.39;74.64;97787.47;116099;1185;70520;-75
2021/09/05 05:19:50;;;;;;;14.20;9.90;;;;;;;11.58;74.58;97787.58;116209;1182;68333;-72
2021/09/05 05:22:19;;;;;;;14.20;10.70;;;;;;;11.84;75.53;97788.78;116136;1184;69030;-75
2021/09/05 05:24:48;;;;;;;16.40;10.30;;;;;;;12.14;74.27;97786.17;116144;1180;59525;-74
2021/09/05 05:27:17;;;;;;;13.70;9.80;;;;;;;12.42;73.70;97790.73;116082;1182;59571;-76
2021/09/05 05:29:46;;;;;;;16.50;10.20;;;;;;;12.50;72.56;97795.86;116194;1184;70370;-70
2021/09/05 05:32:15;;;;;;;14.30;9.70;;;;;;;12.76;72.10;97797.44;116167;1184;68985;-71
2021/09/05 05:34:44;;;;;;;12.00;9.20;;;;;;;13.20;73.73;97794.72;116170;1184;68367;-74
2021/09/05 05:37:14;;;;;;;11.90;8.20;;;;;;;13.61;72.49;97795.13;116079;1185;59546;-73
2021/09/05 05:39:44;;;;;;;11.40;8.40;;;;;;;13.86;68.73;97796.39;116174;1184;59519;-74
2021/09/05 05:42:13;;;;;;;14.00;8.40;;;;;;;13.89;67.05;97799.13;116049;1185;70669;-72
2021/09/05 05:44:42;;;;;;;11.50;8.10;;;;;;;14.14;66.88;97796.54;116185;1184;68689;-74
2021/09/05 05:47:11;;;;;;;11.80;8.70;;;;;;;14.38;67.13;97799.13;116078;1181;69041;-77
2021/09/05 05:49:46;;;;;;;14.40;9.00;;;;;;;14.73;67.08;97797.91;116094;1181;59533;-72
2021/09/05 05:52:15;;;;;;;14.90;9.20;;;;;;;14.77;66.76;97799.36;116216;1185;59566;-76
2021/09/05 05:54:44;;;;;;;10.80;8.60;;;;;;;15.18;66.91;97803.18;116223;1184;71291;-76
2021/09/05 05:57:12;;;;;;;15.20;8.90;;;;;;;15.60;66.42;97806.59;116252;1184;68544;-75
2021/09/05 05:59:42;;;;;;;12.10;8.20;;;;;;;15.84;65.19;97807.15;116125;1184;68490;-72
2021/09/05 06:02:11;;;;;;;17.20;8.50;;;;;;;16.11;63.96;97804.45;116071;1185;59629;-75
2021/09/05 06:04:40;;;;;;;12.90;8.20;;;;;;;16.34;62.38;97804.86;116193;1179;59478;-78
2021/09/05 06:07:10;;;;;;;10.60;8.00;;;;;;;16.44;62.09;97807.34;116163;1184;70375;-75
2021/09/05 06:09:40;;;;;;;12.80;8.30;;;;;;;16.35;61.84;97803.64;116235;1184;69014;-72
2021/09/05 06:12:10;;;;;;;11.30;8.00;;;;;;;16.35;61.80;97801.63;116198;1184;68235;-74
2021/09/05 06:14:39;;;;;;;12.00;7.60;;;;;;;16.39;61.76;97800.70;116195;1184;59551;-73
2021/09/05 06:17:12;;;;;;;13.90;8.10;;;;;;;16.68;61.32;97803.23;116260;1179;59463;-71
2021/09/05 06:19:42;;;;;;;12.10;7.40;;;;;;;16.84;60.38;97803.24;116230;1184;70604;-73
2021/09/05 06:22:11;;;;;;;11.00;6.50;;;;;;;17.23;60.40;97801.66;116213;1184;69123;-71
2021/09/05 06:24:40;;;;;;;10.80;6.60;;;;;;;17.69;59.91;97805.41;116174;1184;68294;-76
2021/09/05 06:27:09;;;;;;;10.80;6.60;;;;;;;17.84;57.98;97804.75;116172;1184;59550;-75
2021/09/05 06:29:38;;;;;;;13.30;6.70;;;;;;;17.96;57.11;97805.45;116158;1184;59615;-77
2021/09/05 06:32:09;;;;;;;15.10;7.00;;;;;;;18.16;56.98;97808.05;116170;1184;70713;-75
2021/09/05 06:34:38;;;;;;;10.70;6.90;;;;;;;18.20;57.27;97803.21;116181;1179;67908;-72
2021/09/05 06:37:07;;;;;;;13.50;6.70;;;;;;;18.08;57.14;97809.02;116204;1182;69300;-76
2021/09/05 06:39:36;;;;;;;9.90;6.10;;;;;;;18.20;56.73;97812.71;116120;1184;59554;-76
2021/09/05 06:42:05;;;;;;;9.90;6.00;;;;;;;18.49;56.63;97809.98;116251;1182;59527;-74
2021/09/05 06:44:34;;;;;;;10.80;7.00;;;;;;;18.58;56.33;97814.17;116205;1184;71204;-71
2021/09/05 06:47:04;;;;;;;11.20;7.00;;;;;;;18.43;56.25;97818.29;116085;1185;69006;-74
2021/09/05 06:49:34;;;;;;;8.90;6.30;;;;;;;18.29;56.32;97824.95;116147;1180;68351;-71
2021/09/05 06:52:03;;;;;;;10.00;6.00;;;;;;;18.39;55.97;97823.53;116148;1184;59504;-72
2021/09/05 06:54:32;;;;;;;10.30;6.30;;;;;;;17.98;56.54;97824.54;116179;1184;59566;-75
2021/09/05 06:57:02;;;;;;;10.00;6.20;;;;;;;18.26;56.31;97822.89;116146;1184;71243;-77
2021/09/05 06:59:31;;;;;;;9.10;6.40;;;;;;;18.48;55.47;97821.73;116110;1184;69197;-74
2021/09/05 07:02:00;;;;;;;11.80;5.90;;;;;;;18.70;54.62;97824.49;116182;1184;67419;-74
2021/09/05 07:04:30;;;;;;;8.10;5.80;;;;;;;18.96;54.15;97824.08;116072;1181;59545;-71
2021/09/05 07:06:59;;;;;;;11.30;6.20;;;;;;;19.06;54.09;97827.68;116200;1181;59556;-73
2021/09/05 07:09:28;;;;;;;10.30;6.20;;;;;;;19.74;52.93;97830.40;116235;1184;70421;-79
2021/09/05 07:11:57;;;;;;;8.10;5.70;;;;;;;20.10;50.90;97827.54;116032;1184;68415;-72
2021/09/05 07:14:26;;;;;;;9.30;6.20;;;;;;;20.34;50.92;97831.30;116161;1179;68412;-72
2021/09/05 07:16:55;;;;;;;11.10;6.00;;;;;;;20.35;50.45;97827.38;116090;1182;59563;-71
2021/09/05 07:19:24;;;;;;;10.60;6.00;;;;;;;19.84;51.15;97830.31;116061;1182;59549;-75
2021/09/05 07:21:53;;;;;;;10.30;5.80;;;;;;;19.67;52.13;97833.48;116232;1180;71347;-72
2021/09/05 07:24:22;;;;;;;10.80;6.20;;;;;;;19.61;52.12;97838.10;116200;1179;68213;-71
2021/09/05 07:26:51;;;;;;;9.30;5.60;;;;;;;19.48;52.36;97841.39;116193;1184;69484;-70
2021/09/05 07:29:20;;;;;;;9.80;6.00;;;;;;;19.44;53.12;97846.14;116153;1184;59562;-74
2021/09/05 07:31:49;;;;;;;9.00;5.70;;;;;;;19.97;52.23;97849.51;116195;1184;59546;-71
2021/09/05 07:34:18;;;;;;;8.50;5.80;;;;;;;20.08;51.76;97849.64;116175;1184;70235;-74
2021/09/05 07:36:47;;;;;;;8.20;5.00;;;;;;;19.96;51.69;97849.01;116100;1185;69082;-70
2021/09/05 07:39:16;;;;;;;8.00;5.50;;;;;;;19.59;53.17;97846.61;116170;1179;68307;-79
2021/09/05 07:41:45;;;;;;;8.00;5.70;;;;;;;19.80;52.02;97847.34;116166;1182;59575;-78
2021/09/05 07:44:14;;;;;;;8.90;5.70;;;;;;;20.05;51.93;97848.63;116158;1180;59678;-72
2021/09/05 07:46:44;;;;;;;13.10;6.00;;;;;;;20.27;52.02;97851.22;116239;1181;71619;-80
2021/09/05 07:49:13;;;;;;;;;;;;;;;20.41;50.59;97851.63;116226;1185;68459;-75
2021/09/05 07:51:41;;;;;;;12.10;6.50;;;;;;;20.30;50.71;97851.77;116106;1184;67582;-73
2021/09/05 07:54:10;;;;;;;8.60;5.60;;;;;;;20.21;51.10;97857.26;116190;1184;59564;-79
2021/09/05 07:56:39;;;;;;;8.40;5.70;;;;;;;20.13;51.17;97853.84;116320;1184;59538;-74
2021/09/05 07:59:09;;;;;;;10.40;5.70;;;;;;;20.14;51.27;97861.01;116221;1184;71526;-72
2021/09/05 08:01:38;;;;;;;11.60;6.00;;;;;;;20.06;51.47;97861.98;116224;1184;67612;-72
2021/09/05 08:04:10;;;;;;;9.40;5.90;;;;;;;20.24;51.69;97866.17;116185;1184;69222;-79
2021/09/05 08:06:38;;;;;;;13.80;6.20;;;;;;;20.81;50.82;97866.42;116068;1185;59523;-79
2021/09/05 08:09:07;;;;;;;8.70;5.80;;;;;;;21.14;49.01;97866.43;116186;1184;59533;-76
2021/09/05 08:11:37;;;;;;;7.90;5.30;;;;;;;21.21;47.83;97869.81;116028;1184;70683;-77
2021/09/05 08:14:06;;;;;;;9.40;6.00;;;;;;;21.53;47.49;97871.76;116135;1181;69222;-71
2021/09/05 08:16:37;;;;;;;9.40;5.60;;;;;;;22.00;47.02;97867.23;116209;1182;68419;-76
2021/09/05 08:19:06;;;;;;;7.50;5.10;;;;;;;22.16;46.65;97868.47;116119;1184;59581;-73
2021/09/05 08:21:35;;;;;;;9.30;5.70;;;;;;;22.19;46.03;97871.19;116190;1184;59539;-77
2021/09/05 08:24:08;;;;;;;10.20;5.50;;;;;;;22.52;45.49;97872.44;116200;1185;71420;-76
2021/09/05 08:26:37;;;;;;;10.00;5.40;;;;;;;22.94;44.80;97871.48;116156;1184;69040;-81
2021/09/05 08:29:08;;;;;;;7.50;4.90;;;;;;;23.53;44.11;97871.65;116161;1184;69239;-77
2021/09/05 08:31:37;;;;;;;7.90;5.10;;;;;;;24.35;42.48;97869.48;116153;1184;59591;-73
2021/09/05 08:34:06;;;;;;;8.90;5.30;;;;;;;25.38;41.50;97866.65;116257;1180;59553;-73
2021/09/05 08:36:35;;;;;;;8.90;4.90;;;;;;;25.85;38.64;97869.15;116336;1179;70586;-72
2021/09/05 08:39:04;;;;;;;9.40;5.10;;;;;;;25.92;38.06;97866.73;116306;1179;68286;-80
2021/09/05 08:41:34;;;;;;;8.00;4.90;;;;;;;26.10;36.89;97866.09;116295;1179;68231;-80
2021/09/05 08:44:03;;;;;;;;;;;;;;;25.73;37.18;97863.77;116285;1179;59559;-78
2021/09/05 08:46:33;;;;;;;6.90;4.90;;;;;;;25.38;37.90;97857.48;116119;1184;59571;-73
2021/09/05 08:49:03;;;;;;;8.60;4.60;;;;;;;25.80;37.43;97858.42;116329;1184;70682;-75
2021/09/05 08:51:32;;;;;;;10.60;4.80;;;;;;;26.20;37.27;97859.95;116295;1184;69029;-77
2021/09/05 08:54:02;;;;;;;7.30;5.10;;;;;;;27.15;35.60;97859.55;116070;1185;69325;-73
2021/09/05 08:56:31;;;;;;;9.10;5.40;;;;;;;27.25;34.86;97858.82;116289;1184;59530;-77
2021/09/05 08:59:00;;;;;;;9.10;4.80;;;;;;;27.05;34.85;97857.45;116298;1179;59537;-73
2021/09/05 09:01:29;;;;;;;14.20;5.90;;;;;;;27.29;34.75;97858.89;116312;1185;70601;-78
2021/09/05 09:04:10;;;;;;;8.90;5.30;;;;;;;27.61;34.60;97857.90;116223;1179;68462;-81
2021/09/05 09:06:41;;;;;;;6.80;4.80;;;;;;;27.43;34.49;97856.63;116346;1183;68673;-75
2021/09/05 09:09:10;;;;;;;8.40;5.40;;;;;;;27.96;33.08;97854.52;116340;1183;59527;-79
2021/09/05 09:12:00;;;;;;;9.90;4.80;;;;;;;28.06;33.19;97854.06;116290;1179;59546;-80
2021/09/05 09:14:40;;;;;;;10.30;6.20;;;;;;;27.93;32.71;97856.77;116329;1184;70849;-75
2021/09/05 09:17:11;;;;;;;9.70;5.70;;;;;;;27.70;33.33;97854.59;116187;1184;69299;-73
2021/09/05 09:19:44;;;;;;;8.10;5.40;;;;;;;27.88;33.11;97856.07;116283;1184;69374;-76
2021/09/05 09:22:19;;;;;;;9.20;5.30;;;;;;;27.13;34.57;97856.33;116304;1183;59530;-80
2021/09/05 09:24:48;;;;;;;9.20;5.20;;;;;;;28.13;33.29;97854.79;116230;1184;59529;-82
2021/09/05 09:27:17;;;;;;;9.60;6.20;;;;;;;28.59;32.91;97854.23;116207;1183;71199;-74
2021/09/05 09:29:46;;;;;;;8.30;5.80;;;;;;;28.43;32.69;97851.36;116302;1183;69406;-75
2021/09/05 09:32:22;;;;;;;9.90;5.90;;;;;;;28.56;32.61;97850.48;116271;1183;69169;-81
2021/09/05 09:34:53;;;;;;;9.90;5.80;;;;;;;28.62;32.14;97848.42;116180;1184;59511;-81
2021/09/05 09:37:23;;;;;;;7.70;5.00;;;;;;;28.66;32.09;97847.05;116326;1184;59567;-73
2021/09/05 09:39:56;;;;;;;9.90;5.30;;;;;;;28.64;32.58;97845.38;116321;1180;70764;-78
2021/09/05 09:42:52;;;;;;;8.20;4.90;;;;;;;28.91;32.33;97847.95;116148;1183;68451;-77
2021/09/05 09:45:21;;;;;;;9.50;5.40;;;;;;;29.53;31.12;97846.48;116104;1184;68477;-72
2021/09/05 09:47:51;;;;;;;9.80;5.30;;;;;;;28.72;31.89;97840.64;116309;1182;59568;-81
2021/09/05 09:50:23;;;;;;;7.20;4.70;;;;;;;28.17;32.69;97847.40;116382;1182;59552;-81
2021/09/05 09:52:53;;;;;;;7.50;5.20;;;;;;;27.69;34.16;97844.36;116325;1184;71188;-74
2021/09/05 09:55:22;;;;;;;8.10;5.20;;;;;;;28.39;33.03;97844.25;116325;1185;69300;-74
2021/09/05 09:57:51;;;;;;;;;;;;;;;28.61;32.02;97845.24;116254;1184;69226;-77
2021/09/05 10:00:20;;;;;;;7.70;5.60;;;;;;;27.95;33.75;97842.23;116295;1183;59539;-76
2021/09/05 10:02:49;;;;;;;11.80;7.70;;;;;;;28.86;33.10;97837.27;116149;1179;59542;-72
2021/09/05 10:05:20;;;;;;;;;;;;;;;29.50;31.87;97836.91;116274;1185;71242;-75
2021/09/05 10:07:51;;;;;;;8.40;5.90;;;;;;;29.45;31.72;97838.85;116320;1184;68440;-76
2021/09/05 10:10:24;;;;;;;7.80;5.30;;;;;;;29.85;31.33;97836.89;116319;1179;68881;-78
2021/09/05 10:12:55;;;;;;;8.50;6.10;;;;;;;28.99;30.72;97834.31;116255;1184;59543;-75
2021/09/05 10:15:24;;;;;;;11.10;6.40;;;;;;;29.51;30.44;97833.72;116334;1180;59533;-77
2021/09/05 10:17:54;;;;;;;9.50;5.40;;;;;;;30.02;29.94;97832.76;116298;1184;71243;-78
2021/09/05 10:20:25;;;;;;;8.50;5.50;;;;;;;30.00;29.20;97829.99;116288;1183;69183;-71
2021/09/05 10:22:54;;;;;;;8.00;5.90;;;;;;;30.00;29.85;97832.14;116319;1179;69234;-76
2021/09/05 10:25:23;;;;;;;12.60;9.30;;;;;;;30.46;29.27;97823.91;116155;1184;59510;-75
2021/09/05 10:27:53;;;;;;;10.60;7.30;;;;;;;31.12;28.30;97829.21;116297;1179;59553;-76
2021/09/05 10:30:24;;;;;;;8.80;6.20;;;;;;;31.67;27.93;97828.49;116296;1185;70614;-77
2021/09/05 10:33:04;;;;;;;10.10;6.00;;;;;;;31.80;26.83;97829.27;116335;1184;69420;-77
2021/09/05 10:35:38;;;;;;;12.00;9.60;;;;;;;31.97;26.39;97829.98;116241;1184;69705;-73
2021/09/05 10:38:23;;;;;;;14.70;9.60;;;;;;;32.02;26.09;97826.80;116249;1183;59539;-74
2021/09/05 10:40:56;;;;;;;8.30;6.20;;;;;;;32.25;25.23;97829.59;116314;1183;59613;-73
2021/09/05 10:43:48;;;;;;;8.80;5.60;;;;;;;31.69;25.42;97826.41;116345;1185;71447;-78
2021/09/05 10:46:28;;;;;;;7.90;5.30;;;;;;;31.91;25.16;97830.12;116053;1184;69136;-80
2021/09/05 10:48:59;;;;;;;11.20;5.60;;;;;;;31.70;25.85;97826.96;116265;1184;69070;-82
2021/09/05 10:51:33;;;;;;;54.60;44.70;;;;;;;32.42;24.64;97826.96;116320;1179;59608;-77
2021/09/05 10:54:08;;;;;;;49.40;35.50;;;;;;;32.52;24.21;97824.86;116317;1179;59965;-79
2021/09/05 10:56:45;;;;;;;13.40;7.40;;;;;;;32.59;24.45;97828.50;116151;1185;71299;-76
2021/09/05 10:59:16;;;;;;;8.30;5.50;;;;;;;32.81;24.17;97820.95;116275;1183;68562;-78
2021/09/05 11:01:45;;;;;;;14.70;8.60;;;;;;;32.57;23.77;97821.25;116299;1183;69102;-79
2021/09/05 11:04:15;;;;;;;7.70;5.30;;;;;;;32.49;24.47;97819.19;116220;1185;59927;-75
2021/09/05 11:06:52;;;;;;;8.20;5.50;;;;;;;32.49;23.48;97817.73;116324;1184;59526;-77
2021/09/05 11:09:24;;;;;;;8.00;5.50;;;;;;;33.07;23.11;97813.38;116150;1184;71213;-79
2021/09/05 11:11:58;;;;;;;8.30;5.50;;;;;;;33.19;22.50;97811.68;116309;1183;68768;-75
2021/09/05 11:14:51;;;;;;;6.60;5.20;;;;;;;33.15;22.29;97809.77;116278;1184;69226;-76
2021/09/05 11:17:33;;;;;;;9.40;5.50;;;;;;;33.13;23.21;97811.11;116258;1185;59574;-82
2021/09/05 11:20:06;;;;;;;7.60;5.90;;;;;;;32.83;23.52;97811.19;116334;1183;59948;-83
2021/09/05 11:22:42;;;;;;;7.90;5.80;;;;;;;32.27;22.22;97810.38;116190;1185;71150;-78
2021/09/05 11:25:33;;;;;;;7.40;5.50;;;;;;;32.93;21.71;97800.23;116338;1185;68518;-76
2021/09/05 11:28:09;;;;;;;7.30;5.40;;;;;;;32.80;22.28;97800.15;116307;1184;68443;-73
2021/09/05 11:30:59;;;;;;;8.00;5.20;;;;;;;31.29;22.84;97802.52;116275;1184;59500;-81
2021/09/05 11:33:29;;;;;;;8.40;5.20;;;;;;;31.01;23.06;97801.06;116395;1179;59543;-80
2021/09/05 11:36:00;;;;;;;7.90;4.90;;;;;;;30.91;23.48;97795.81;116324;1184;70410;-72
2021/09/05 11:38:38;;;;;;;10.50;6.90;;;;;;;29.66;24.96;97796.30;116302;1185;69399;-79
2021/09/05 11:41:08;;;;;;;38.60;34.40;;;;;;;29.96;25.45;97797.63;116350;1185;69278;-82
2021/09/05 11:43:40;;;;;;;11.00;8.70;;;;;;;29.61;26.04;97793.34;116312;1183;59586;-76
2021/09/05 11:46:17;;;;;;;10.00;8.50;;;;;;;28.99;26.71;97793.90;116322;1182;59502;-77
2021/09/05 11:48:58;;;;;;;15.80;12.20;;;;;;;28.25;27.85;97796.71;116335;1185;71197;-82
2021/09/05 11:51:33;;;;;;;8.20;5.90;;;;;;;28.64;27.17;97795.35;116304;1179;68407;-72
2021/09/05 11:54:05;;;;;;;9.00;6.20;;;;;;;28.64;25.91;97794.04;116246;1183;69160;-74
2021/09/05 11:56:35;;;;;;;8.60;6.30;;;;;;;28.75;25.75;97785.95;116273;1184;59552;-79
2021/09/05 11:59:13;;;;;;;9.80;6.00;;;;;;;27.91;27.06;97787.96;116229;1182;59564;-78
2021/09/05 12:01:48;;;;;;;10.10;6.30;;;;;;;27.02;29.39;97788.46;116299;1185;71450;-77